createdAt,value
2018-09-03T00:00:02.078Z,47.30
2018-09-03T00:04:58.809Z,53.17
2018-09-03T00:09:55.824Z,50.10
2018-09-03T00:14:52.664Z,51.37
2018-09-03T00:19:49.581Z,55.93
2018-09-03T00:24:46.459Z,60.23
2018-09-03T00:29:43.476Z,55.50
2018-09-03T00:34:46.105Z,58.90
2018-09-03T00:39:49.316Z,55.50
2018-09-03T00:44:51.724Z,57.33
2018-09-03T00:49:48.510Z,54.87
2018-09-03T00:54:45.486Z,55.30
2018-09-03T00:59:42.451Z,52.33
2018-09-03T01:04:39.278Z,54.93
2018-09-03T01:09:36.245Z,50.60
2018-09-03T01:14:33.013Z,43.63
2018-09-03T01:19:29.962Z,51.97
2018-09-03T01:24:26.821Z,58.20
2018-09-03T01:29:23.809Z,60.67
2018-09-03T01:34:20.535Z,54.90
2018-09-03T01:39:17.480Z,49.73
2018-09-03T01:44:15.299Z,56.77
2018-09-03T01:49:12.664Z,52.37
2018-09-03T01:54:09.390Z,57.60
2018-09-03T01:59:06.432Z,52.30
2018-09-03T02:04:03.164Z,51.97
2018-09-03T02:09:00.173Z,57.30
2018-09-03T02:13:57.115Z,56.63
2018-09-03T02:18:54.063Z,52.93
2018-09-03T02:23:51.050Z,55.80
2018-09-03T02:28:48.880Z,56.73
2018-09-03T02:33:45.765Z,60.70
2018-09-03T02:38:42.714Z,60.73
2018-09-03T02:43:39.442Z,58.57
2018-09-03T02:48:37.211Z,50.90
2018-09-03T02:53:34.069Z,57.07
2018-09-03T02:58:30.994Z,54.17
2018-09-03T03:03:28.063Z,55.67
2018-09-03T03:08:24.952Z,51.57
2018-09-03T03:13:22.220Z,53.50
2018-09-03T03:18:19.044Z,57.93
2018-09-03T03:23:15.981Z,60.87
2018-09-03T03:28:12.719Z,57.30
2018-09-03T03:33:09.794Z,52.17
2018-09-03T03:38:06.655Z,56.00
2018-09-03T03:43:03.906Z,62.93
2018-09-03T03:48:00.669Z,64.17
2018-09-03T03:52:58.534Z,64.17
2018-09-03T03:57:55.381Z,74.13
2018-09-03T04:02:52.497Z,68.87
2018-09-03T04:07:49.332Z,66.03
2018-09-03T04:12:51.785Z,69.27
2018-09-03T04:17:48.669Z,67.27
2018-09-03T04:22:45.664Z,69.73
2018-09-03T04:27:42.442Z,73.43
2018-09-03T04:32:39.455Z,79.43
2018-09-03T04:37:36.364Z,84.63
2018-09-03T04:42:33.368Z,79.53
2018-09-03T04:47:30.177Z,82.90
2018-09-03T04:52:27.662Z,73.23
2018-09-03T04:57:24.485Z,79.07
2018-09-03T05:02:21.475Z,79.17
2018-09-03T05:07:18.275Z,68.43
2018-09-03T05:12:15.371Z,71.83
2018-09-03T05:17:12.174Z,64.43
2018-09-03T05:22:09.220Z,67.30
2018-09-03T05:27:06.532Z,68.40
2018-09-03T05:32:03.449Z,69.80
2018-09-03T05:37:00.493Z,62.53
2018-09-03T05:41:57.259Z,61.20
2018-09-03T05:46:54.397Z,66.53
2018-09-03T05:51:51.246Z,63.30
2018-09-03T05:56:48.186Z,64.17
2018-09-03T06:01:44.999Z,62.53
2018-09-03T06:06:42.247Z,63.87
2018-09-03T06:11:39.286Z,64.53
2018-09-03T06:16:36.187Z,62.53
2018-09-03T06:21:32.913Z,54.03
2018-09-03T06:26:29.841Z,59.07
2018-09-03T06:31:26.712Z,61.10
2018-09-03T06:36:23.658Z,56.57
2018-09-03T06:41:20.616Z,54.90
2018-09-03T06:46:18.700Z,53.53
2018-09-03T06:51:15.847Z,60.97
2018-09-03T06:56:12.628Z,56.70
2018-09-03T07:01:09.690Z,53.30
2018-09-03T07:06:06.428Z,49.90
2018-09-03T07:11:03.725Z,47.60
2018-09-03T07:16:00.544Z,53.27
2018-09-03T07:20:57.725Z,52.53
2018-09-03T07:25:54.537Z,54.93
2018-09-03T07:30:51.552Z,48.07
2018-09-03T07:35:48.301Z,49.33
2018-09-03T07:40:45.475Z,51.30
2018-09-03T07:45:42.448Z,51.40
2018-09-03T07:50:40.008Z,50.00
2018-09-03T07:55:37.534Z,54.40
2018-09-03T08:00:34.557Z,50.70
2018-09-03T08:05:31.356Z,50.50
2018-09-03T08:10:28.169Z,49.90
2018-09-03T08:15:24.937Z,52.43
2018-09-03T08:20:22.102Z,50.30
2018-09-03T08:25:18.936Z,57.90
2018-09-03T08:30:16.021Z,55.77
2018-09-03T08:35:12.869Z,56.77
2018-09-03T08:40:10.153Z,54.17
2018-09-03T08:45:06.897Z,50.43
2018-09-03T08:50:03.860Z,54.93
2018-09-03T08:55:00.766Z,51.80
2018-09-03T08:59:58.243Z,51.13
2018-09-03T09:04:55.058Z,55.73
2018-09-03T09:09:52.056Z,45.83
2018-09-03T09:14:48.824Z,48.53
2018-09-03T09:19:45.661Z,47.70
2018-09-03T09:24:43.562Z,51.93
2018-09-03T09:29:40.698Z,47.33
2018-09-03T09:34:37.522Z,52.80
2018-09-03T09:39:34.531Z,53.43
2018-09-03T09:44:31.218Z,50.43
2018-09-03T09:49:28.332Z,47.30
2018-09-03T09:54:25.108Z,47.50
2018-09-03T09:59:22.678Z,51.00
2018-09-03T10:04:19.442Z,49.73
2018-09-03T10:09:16.384Z,46.67
2018-09-03T10:14:13.138Z,46.60
2018-09-03T10:19:10.434Z,46.13
2018-09-03T10:24:07.376Z,40.10
2018-09-03T10:29:07.750Z,46.33
2018-09-03T10:34:04.687Z,41.03
2018-09-03T10:39:01.624Z,39.43
2018-09-03T10:43:58.419Z,38.67
2018-09-03T10:48:55.365Z,39.63
2018-09-03T10:53:52.118Z,32.47
2018-09-03T10:58:49.360Z,37.33
2018-09-03T11:03:46.121Z,34.53
2018-09-03T11:08:43.114Z,31.63
2018-09-03T11:13:39.912Z,32.87
2018-09-03T11:18:37.829Z,33.27
2018-09-03T11:23:34.648Z,35.60
2018-09-03T11:28:31.801Z,36.53
2018-09-03T11:33:28.777Z,36.20
2018-09-03T11:38:26.007Z,33.93
2018-09-03T11:43:22.770Z,35.20
2018-09-03T11:48:19.770Z,33.60
2018-09-03T11:53:16.899Z,30.63
2018-09-03T11:58:13.973Z,33.47
2018-09-03T12:03:10.913Z,35.23
2018-09-03T12:08:07.819Z,36.20
2018-09-03T12:13:05.070Z,33.60
2018-09-03T12:18:01.842Z,40.60
2018-09-03T12:22:58.910Z,35.57
2018-09-03T12:27:55.798Z,31.87
2018-09-03T12:32:52.951Z,35.07
2018-09-03T12:37:49.827Z,34.03
2018-09-03T12:42:46.982Z,33.13
2018-09-03T12:47:44.835Z,36.83
2018-09-03T12:52:44.019Z,36.43
2018-09-03T12:57:40.932Z,37.98
2018-09-03T13:02:39.413Z,39.10
2018-09-03T13:07:34.757Z,37.50
2018-09-03T13:12:32.069Z,37.70
2018-09-03T13:17:29.207Z,37.13
2018-09-03T13:22:26.285Z,35.07
2018-09-03T13:27:23.105Z,37.20
2018-09-03T13:32:20.350Z,36.40
2018-09-03T13:37:17.612Z,35.10
2018-09-03T13:42:14.822Z,32.20
2018-09-03T13:47:11.827Z,38.65
2018-09-03T13:52:09.424Z,30.60
2018-09-03T13:57:08.108Z,29.77
2018-09-03T14:02:05.898Z,33.60
2018-09-03T14:07:03.174Z,30.55
2018-09-03T14:12:00.194Z,31.50
2018-09-03T14:16:57.529Z,33.83
2018-09-03T14:21:54.970Z,30.52
2018-09-03T14:26:51.758Z,33.67
2018-09-03T14:31:48.711Z,30.25
2018-09-03T14:36:45.488Z,29.07
2018-09-03T14:41:43.889Z,26.57
2018-09-03T14:46:40.700Z,26.15
2018-09-03T14:51:37.897Z,26.35
2018-09-03T14:56:34.910Z,28.60
2018-09-03T15:01:32.030Z,30.30
2018-09-03T15:06:28.870Z,26.87
2018-09-03T15:11:25.953Z,24.20
2018-09-03T15:16:22.686Z,24.00
2018-09-03T15:21:19.708Z,23.07
2018-09-03T15:26:16.560Z,23.77
2018-09-03T15:31:13.403Z,24.80
2018-09-03T15:36:10.342Z,26.35
2018-09-03T15:41:07.828Z,22.07
2018-09-03T15:46:05.045Z,19.80
2018-09-03T15:51:02.267Z,23.45
2018-09-03T15:56:00.629Z,23.50
2018-09-03T16:00:57.498Z,22.20
2018-09-03T16:05:54.523Z,22.10
2018-09-03T16:10:51.337Z,22.00
2018-09-03T16:15:48.800Z,20.95
2018-09-03T16:20:45.616Z,21.23
2018-09-03T16:25:42.737Z,19.25
2018-09-03T16:30:39.590Z,19.15
2018-09-03T16:35:36.684Z,16.95
2018-09-03T16:40:33.952Z,16.07
2018-09-03T16:45:30.873Z,16.73
2018-09-03T16:50:27.999Z,17.65
2018-09-03T16:55:24.898Z,21.68
2018-09-03T17:00:22.104Z,20.30
2018-09-03T17:05:18.981Z,21.17
2018-09-03T17:10:16.032Z,21.95
2018-09-03T17:15:12.758Z,26.97
2018-09-03T17:20:09.743Z,23.45
2018-09-03T17:25:06.585Z,28.15
2018-09-03T17:30:03.688Z,31.25
2018-09-03T17:35:00.478Z,33.18
2018-09-03T17:39:57.495Z,37.67
2018-09-03T17:44:54.382Z,38.73
2018-09-03T17:49:51.333Z,38.23
2018-09-03T17:54:48.196Z,39.47
2018-09-03T17:59:45.550Z,38.50
2018-09-03T18:04:42.309Z,43.77
2018-09-03T18:09:39.769Z,46.23
2018-09-03T18:14:36.569Z,49.57
2018-09-03T18:19:33.609Z,45.00
2018-09-03T18:24:30.349Z,52.97
2018-09-03T18:29:27.328Z,55.30
2018-09-03T18:34:24.324Z,51.30
2018-09-03T18:39:21.958Z,41.63
2018-09-03T18:44:18.780Z,52.67
2018-09-03T18:49:15.896Z,56.67
2018-09-03T18:54:12.654Z,53.80
2018-09-03T18:59:09.843Z,58.97
2018-09-03T19:04:06.587Z,53.47
2018-09-03T19:09:04.681Z,48.93
2018-09-03T19:14:02.101Z,50.53
2018-09-03T19:18:59.435Z,57.83
2018-09-03T19:23:56.267Z,58.80
2018-09-03T19:28:53.138Z,57.53
2018-09-03T19:33:49.984Z,48.47
2018-09-03T19:38:47.240Z,48.83
2018-09-03T19:43:44.200Z,58.40
2018-09-03T19:48:40.980Z,50.40
2018-09-03T19:53:37.916Z,49.10
2018-09-03T19:58:34.724Z,51.60
2018-09-03T20:03:31.860Z,54.17
2018-09-03T20:08:28.884Z,54.80
2018-09-03T20:13:25.886Z,52.97
2018-09-03T20:18:23.634Z,56.63
2018-09-03T20:23:20.908Z,54.97
2018-09-03T20:28:17.782Z,71.60
2018-09-03T20:33:15.243Z,60.17
2018-09-03T20:38:12.552Z,59.90
2018-09-03T20:43:09.362Z,63.60
2018-09-03T20:48:06.345Z,58.63
2018-09-03T20:53:03.181Z,56.90
2018-09-03T20:58:00.190Z,61.00
2018-09-03T21:02:57.358Z,57.50
2018-09-03T21:07:54.200Z,60.43
2018-09-03T21:12:51.056Z,56.47
2018-09-03T21:17:47.847Z,60.90
2018-09-03T21:22:44.642Z,56.03
2018-09-03T21:27:41.715Z,75.40
2018-09-03T21:32:39.143Z,61.27
2018-09-03T21:37:36.429Z,68.93
2018-09-03T21:42:33.445Z,77.13
2018-09-03T21:47:30.289Z,77.37
2018-09-03T21:52:27.457Z,86.00
2018-09-03T21:57:24.250Z,94.20
2018-09-03T22:02:21.243Z,80.87
2018-09-03T22:07:17.993Z,77.37
2018-09-03T22:12:15.610Z,66.07
2018-09-03T22:17:12.911Z,76.53
2018-09-03T22:22:09.851Z,77.57
2018-09-03T22:27:06.176Z,74.57
2018-09-03T22:32:03.494Z,70.13
2018-09-03T22:37:00.274Z,69.57
2018-09-03T22:41:57.216Z,59.03
2018-09-03T22:46:54.034Z,60.00
2018-09-03T22:51:50.963Z,63.77
2018-09-03T22:56:47.775Z,61.20
2018-09-03T23:01:44.786Z,60.03
2018-09-03T23:06:41.583Z,66.43
2018-09-03T23:11:38.723Z,67.00
2018-09-03T23:16:35.969Z,65.77
2018-09-03T23:21:32.857Z,58.43
2018-09-03T23:26:30.146Z,68.90
2018-09-03T23:31:27.538Z,56.83
2018-09-03T23:36:24.795Z,58.03
2018-09-03T23:41:21.586Z,56.50
2018-09-03T23:46:18.637Z,59.43
2018-09-03T23:51:15.354Z,67.10
2018-09-03T23:56:12.368Z,66.63
